Time;durP1;ratioP1;P1;durP2;ratioP2;P2;SDS_P1;SDS_P2;PMS_P1;PMS_P2;Temp;Humidity;BMP_temperature;BMP_pressure;BME280_temperature;BME280_humidity;BME280_pressure;Samples;Min_cycle;Max_cycle;Signal;HPM_P1;HPM_P2
2024/04/15 00:01:20;;;;;;;7.90;7.10;;;16.50;99.90;;;;;;6772363;26;20597;-59
2024/04/15 00:04:34;;;;;;;6.60;6.07;;;16.40;99.90;;;;;;6767994;26;20315;-60
2024/04/15 00:07:39;;;;;;;7.73;7.03;;;16.50;99.90;;;;;;6778826;26;20900;-60
2024/04/15 00:11:02;;;;;;;7.00;6.50;;;16.40;99.90;;;;;;6786998;26;20520;-60
2024/04/15 00:14:06;;;;;;;7.23;6.70;;;16.40;99.90;;;;;;6783138;26;20521;-59
2024/04/15 00:17:19;;;;;;;7.23;6.50;;;16.40;99.90;;;;;;6780331;26;20477;-60
2024/04/15 00:20:23;;;;;;;7.80;7.10;;;16.40;99.90;;;;;;6782320;26;20231;-62
2024/04/15 00:23:39;;;;;;;7.87;7.17;;;16.40;99.90;;;;;;6785687;26;21183;-60
2024/04/15 00:26:45;;;;;;;7.63;7.13;;;16.30;99.90;;;;;;6796766;26;20506;-61
2024/04/15 00:29:53;;;;;;;7.40;6.80;;;16.30;99.90;;;;;;6791049;26;20476;-60
2024/04/15 00:33:04;;;;;;;7.50;6.87;;;16.20;99.90;;;;;;6793342;26;20473;-60
2024/04/15 00:36:10;;;;;;;7.83;7.23;;;16.20;99.90;;;;;;6794462;26;20778;-60
2024/04/15 00:39:13;;;;;;;8.00;7.33;;;16.30;99.90;;;;;;6789138;26;20525;-59
2024/04/15 00:42:21;;;;;;;7.83;7.20;;;16.40;99.90;;;;;;6797307;26;20519;-61
2024/04/15 00:45:29;;;;;;;8.30;7.40;;;16.40;99.90;;;;;;6787817;26;20530;-61
2024/04/15 00:48:53;;;;;;;7.23;6.67;;;16.40;99.90;;;;;;6782478;26;20592;-60
2024/04/15 00:52:01;;;;;;;7.10;6.60;;;16.50;99.90;;;;;;6797984;26;20467;-63
2024/04/15 00:55:19;;;;;;;8.33;7.57;;;16.40;99.90;;;;;;6798537;26;20277;-62
2024/04/15 00:58:27;;;;;;;6.50;5.90;;;16.40;99.90;;;;;;6815881;26;21055;-62
2024/04/15 01:01:35;;;;;;;7.73;7.03;;;16.30;99.90;;;;;;6802032;26;20468;-62
2024/04/15 01:04:56;;;;;;;11.10;7.13;;;16.30;99.90;;;;;;6809552;26;20239;-62
2024/04/15 01:08:03;;;;;;;8.50;7.57;;;16.30;99.90;;;;;;6802446;26;20481;-62
2024/04/15 01:11:07;;;;;;;8.70;6.90;;;16.30;99.90;;;;;;6808742;26;20578;-62
2024/04/15 01:14:38;;;;;;;9.13;8.37;;;16.20;99.90;;;;;;6810376;26;20475;-62
2024/04/15 01:17:43;;;;;;;8.00;7.40;;;16.20;99.90;;;;;;6810482;26;20487;-63
2024/04/15 01:21:09;;;;;;;7.70;6.90;;;16.10;99.90;;;;;;6817905;26;20516;-63
2024/04/15 01:24:36;;;;;;;7.40;6.67;;;16.10;99.90;;;;;;6769094;26;20517;-63
2024/04/15 01:27:41;;;;;;;8.63;7.93;;;16.10;99.90;;;;;;6769590;26;20454;-63
2024/04/15 01:30:56;;;;;;;9.70;7.40;;;16.10;99.90;;;;;;6786993;26;20327;-63
2024/04/15 01:34:05;;;;;;;6.90;6.40;;;16.00;99.90;;;;;;6814614;26;20456;-63
2024/04/15 01:37:13;;;;;;;9.13;6.97;;;16.00;99.90;;;;;;6808085;26;20463;-62
2024/04/15 01:40:30;;;;;;;7.63;7.03;;;16.00;99.90;;;;;;6815409;26;20871;-63
2024/04/15 01:43:45;;;;;;;7.23;6.73;;;15.90;99.90;;;;;;6813196;26;20464;-61
2024/04/15 01:46:59;;;;;;;8.00;7.30;;;15.90;99.90;;;;;;6815396;26;20464;-63
2024/04/15 01:50:05;;;;;;;7.70;7.10;;;16.00;99.90;;;;;;6814741;26;20464;-62
2024/04/15 01:53:17;;;;;;;7.13;6.50;;;15.90;99.90;;;;;;6814776;26;21183;-63
2024/04/15 01:56:39;;;;;;;7.53;6.90;;;15.90;99.90;;;;;;6815099;26;20464;-62
2024/04/15 01:59:42;;;;;;;7.57;6.97;;;15.80;99.90;;;;;;6800503;26;20511;-62
2024/04/15 02:02:50;;;;;;;8.13;7.43;;;15.90;99.90;;;;;;6815935;26;20464;-62
2024/04/15 02:05:55;;;;;;;7.70;7.10;;;15.80;99.90;;;;;;6816055;26;20468;-63
2024/04/15 02:09:02;;;;;;;8.20;7.50;;;15.80;99.90;;;;;;6752733;26;20464;-62
2024/04/15 02:12:16;;;;;;;8.13;7.30;;;15.80;99.90;;;;;;6770562;26;20507;-63
2024/04/15 02:15:26;;;;;;;7.50;6.90;;;15.80;99.90;;;;;;6772182;26;20853;-62
2024/04/15 02:18:34;;;;;;;9.90;8.93;;;15.70;99.90;;;;;;6769646;26;20445;-62
2024/04/15 02:21:48;;;;;;;8.23;7.70;;;15.70;99.90;;;;;;6769955;26;20583;-63
2024/04/15 02:25:02;;;;;;;8.07;7.30;;;15.70;99.90;;;;;;6769429;26;20477;-62
2024/04/15 02:28:25;;;;;;;10.10;7.13;;;15.60;99.90;;;;;;6769421;26;21009;-63
2024/04/15 02:31:33;;;;;;;8.40;7.60;;;15.60;99.90;;;;;;6769908;26;20461;-62
2024/04/15 02:34:42;;;;;;;8.53;7.63;;;15.60;99.90;;;;;;6768573;26;20578;-63
2024/04/15 02:37:48;;;;;;;7.97;7.37;;;15.60;99.90;;;;;;6799562;26;20531;-63
2024/04/15 02:40:57;;;;;;;7.70;7.00;;;15.50;99.90;;;;;;6813015;26;20525;-62
2024/04/15 02:44:21;;;;;;;8.20;7.60;;;15.50;99.90;;;;;;6812974;26;20516;-62
2024/04/15 02:47:40;;;;;;;7.83;7.00;;;15.40;99.90;;;;;;6814255;26;20479;-63
2024/04/15 02:50:45;;;;;;;7.30;6.70;;;15.40;99.90;;;;;;6815488;26;20448;-62
2024/04/15 02:54:13;;;;;;;8.87;8.10;;;15.40;99.90;;;;;;6814137;26;20460;-62
2024/04/15 02:57:17;;;;;;;7.90;7.20;;;15.30;99.90;;;;;;6814406;26;20476;-62
2024/04/15 03:00:29;;;;;;;8.00;7.20;;;15.30;99.90;;;;;;6805438;26;20518;-63
2024/04/15 03:03:34;;;;;;;7.60;7.00;;;15.20;99.90;;;;;;6813769;26;20464;-62
2024/04/15 03:06:42;;;;;;;7.57;6.97;;;15.20;99.90;;;;;;6813151;26;20775;-62
2024/04/15 03:09:57;;;;;;;8.20;7.50;;;15.20;99.90;;;;;;6812421;26;20527;-62
2024/04/15 03:13:00;;;;;;;8.60;7.90;;;15.20;99.90;;;;;;6812467;26;20579;-62
2024/04/15 03:16:28;;;;;;;7.90;7.13;;;15.10;99.90;;;;;;6811302;26;20547;-62
2024/04/15 03:19:44;;;;;;;8.30;7.70;;;15.10;99.90;;;;;;6814241;26;20578;-64
2024/04/15 03:22:49;;;;;;;8.10;7.40;;;15.10;99.90;;;;;;6812916;26;20464;-62
2024/04/15 03:26:03;;;;;;;8.93;8.23;;;15.00;99.90;;;;;;6812507;26;20476;-62
2024/04/15 03:29:21;;;;;;;9.20;7.50;;;15.00;99.90;;;;;;6783788;26;20538;-62
2024/04/15 03:32:51;;;;;;;8.23;7.63;;;15.00;99.90;;;;;;6812897;26;21068;-62
2024/04/15 03:35:55;;;;;;;8.83;8.13;;;14.90;99.90;;;;;;6812263;26;20475;-63
2024/04/15 03:39:03;;;;;;;8.73;7.90;;;15.00;99.90;;;;;;6768655;26;21021;-62
2024/04/15 03:42:18;;;;;;;9.63;8.77;;;14.90;99.90;;;;;;6768894;26;20465;-62
2024/04/15 03:45:30;;;;;;;8.90;8.07;;;14.90;99.90;;;;;;6765321;26;20482;-62
2024/04/15 03:48:37;;;;;;;8.63;7.93;;;14.90;99.90;;;;;;6768228;26;20538;-63
2024/04/15 03:51:43;;;;;;;8.47;7.67;;;14.90;99.90;;;;;;6767312;26;20508;-62
2024/04/15 03:54:51;;;;;;;9.07;8.17;;;14.90;99.90;;;;;;6767166;26;20532;-63
2024/04/15 03:58:16;;;;;;;9.10;8.30;;;14.90;99.90;;;;;;6766890;26;20518;-62
2024/04/15 04:01:25;;;;;;;9.90;8.90;;;14.90;99.90;;;;;;6769173;26;20533;-64
2024/04/15 04:04:47;;;;;;;8.97;8.27;;;14.90;99.90;;;;;;6768138;26;20522;-62
2024/04/15 04:07:52;;;;;;;9.83;9.00;;;14.80;99.90;;;;;;6769412;26;20533;-62
2024/04/15 04:10:59;;;;;;;8.90;7.37;;;14.80;99.90;;;;;;6756067;26;20453;-63
2024/04/15 04:14:03;;;;;;;9.87;9.07;;;14.80;99.90;;;;;;6759407;26;21026;-62
2024/04/15 04:17:17;;;;;;;9.33;8.60;;;14.90;99.90;;;;;;6734383;26;20507;-63
2024/04/15 04:20:35;;;;;;;8.80;8.07;;;14.90;99.90;;;;;;6767138;26;20880;-64
2024/04/15 04:23:38;;;;;;;9.53;8.77;;;14.90;99.90;;;;;;6767197;26;20457;-62
2024/04/15 04:26:46;;;;;;;9.37;7.20;;;14.90;99.90;;;;;;6766778;26;20572;-62
2024/04/15 04:29:50;;;;;;;9.50;8.10;;;14.90;99.90;;;;;;6765380;26;20462;-63
2024/04/15 04:32:56;;;;;;;8.40;7.70;;;14.90;99.90;;;;;;6767084;26;20806;-62
2024/04/15 04:36:05;;;;;;;10.17;8.50;;;15.00;99.90;;;;;;6767563;26;20827;-62
2024/04/15 04:39:15;;;;;;;11.33;8.27;;;15.10;99.90;;;;;;6786599;26;20682;-63
2024/04/15 04:42:20;;;;;;;8.43;7.63;;;15.10;99.90;;;;;;6810055;26;20455;-63
2024/04/15 04:45:27;;;;;;;10.10;8.43;;;15.10;99.90;;;;;;6809937;26;20604;-64
2024/04/15 04:48:31;;;;;;;10.10;8.40;;;15.20;99.90;;;;;;6812946;26;20455;-63
2024/04/15 04:51:48;;;;;;;9.57;8.57;;;15.30;99.90;;;;;;6807239;26;20517;-63
2024/04/15 04:54:56;;;;;;;10.70;9.00;;;15.40;99.90;;;;;;6815084;26;20563;-63
2024/04/15 04:58:08;;;;;;;8.50;7.70;;;15.50;99.90;;;;;;6815455;26;20468;-62
2024/04/15 05:01:17;;;;;;;9.67;8.17;;;15.70;99.90;;;;;;6815848;26;20475;-62
2024/04/15 05:04:27;;;;;;;8.73;7.93;;;15.80;99.90;;;;;;6814682;26;20520;-62
2024/04/15 05:07:47;;;;;;;10.27;8.03;;;15.90;99.90;;;;;;6815878;26;20541;-62
2024/04/15 05:10:55;;;;;;;9.70;8.17;;;16.10;99.90;;;;;;6815150;26;20227;-64
2024/04/15 05:14:10;;;;;;;7.93;7.17;;;16.20;99.90;;;;;;6812225;26;20472;-63
2024/04/15 05:17:25;;;;;;;8.93;7.53;;;16.30;99.90;;;;;;6814595;26;20516;-63
2024/04/15 05:20:32;;;;;;;10.90;8.23;;;16.40;99.90;;;;;;6815834;26;20270;-64
2024/04/15 05:23:39;;;;;;;8.93;8.13;;;16.70;99.90;;;;;;6815075;26;20850;-64
2024/04/15 05:26:47;;;;;;;7.83;7.13;;;16.90;99.90;;;;;;6812755;26;20800;-63
2024/04/15 05:29:50;;;;;;;9.30;8.50;;;17.10;99.90;;;;;;6814639;26;20725;-62
2024/04/15 05:32:57;;;;;;;12.50;6.50;;;17.40;99.90;;;;;;6814329;26;20270;-63
2024/04/15 05:36:01;;;;;;;10.23;8.07;;;17.60;99.90;;;;;;6814270;26;20243;-64
2024/04/15 05:39:15;;;;;;;7.73;7.00;;;17.80;98.60;;;;;;6813945;26;20235;-63
2024/04/15 05:42:20;;;;;;;11.20;7.60;;;17.90;98.30;;;;;;6814049;26;20261;-63
2024/04/15 05:45:30;;;;;;;9.37;8.30;;;17.90;97.90;;;;;;6809673;26;20235;-62
2024/04/15 05:48:36;;;;;;;9.93;7.60;;;18.40;98.20;;;;;;6814848;26;20220;-63
2024/04/15 05:51:44;;;;;;;10.03;9.07;;;19.00;97.60;;;;;;6817248;26;20339;-64
2024/04/15 05:55:00;;;;;;;12.03;8.07;;;19.40;96.50;;;;;;6821873;26;20242;-63
2024/04/15 05:58:18;;;;;;;10.10;9.13;;;19.80;95.10;;;;;;6815459;26;20739;-63
2024/04/15 06:01:24;;;;;;;10.23;8.70;;;20.00;94.20;;;;;;6810973;26;20227;-63
2024/04/15 06:04:40;;;;;;;8.90;8.00;;;20.20;93.80;;;;;;6808048;26;20293;-63
2024/04/15 06:07:45;;;;;;;15.90;14.47;;;20.40;93.10;;;;;;6814944;26;20239;-64
2024/04/15 06:11:09;;;;;;;9.37;8.57;;;20.60;92.20;;;;;;6816293;26;20222;-63
2024/04/15 06:14:13;;;;;;;14.97;11.57;;;20.90;91.50;;;;;;6813360;26;20282;-63
2024/04/15 06:17:26;;;;;;;15.23;10.60;;;21.10;90.60;;;;;;6813704;26;20320;-63
2024/04/15 06:20:34;;;;;;;23.97;14.60;;;21.30;90.20;;;;;;6814023;26;20852;-63
2024/04/15 06:23:39;;;;;;;14.67;13.10;;;21.50;88.90;;;;;;6812949;26;20223;-64
2024/04/15 06:27:01;;;;;;;9.23;8.33;;;21.80;87.10;;;;;;6813737;26;20242;-63
2024/04/15 06:30:08;;;;;;;10.87;9.87;;;22.00;85.10;;;;;;6813132;26;20227;-63
2024/04/15 06:33:16;;;;;;;8.00;7.30;;;22.20;83.40;;;;;;6813750;26;20645;-63
2024/04/15 06:36:20;;;;;;;8.80;8.10;;;22.40;80.60;;;;;;6813563;26;20235;-63
2024/04/15 06:42:49;;;;;;;8.70;7.90;;;22.60;78.00;;;;;;6813667;26;20227;-63
2024/04/15 06:45:53;;;;;;;9.40;8.50;;;22.80;77.30;;;;;;6812254;26;20269;-64
2024/04/15 06:49:06;;;;;;;10.50;7.90;;;23.00;76.60;;;;;;6777689;26;20244;-63
2024/04/15 06:52:13;;;;;;;8.87;7.83;;;23.20;74.80;;;;;;6769417;26;20294;-63
2024/04/15 06:55:26;;;;;;;7.97;7.30;;;23.40;74.40;;;;;;6767274;26;20294;-64
2024/04/15 06:58:44;;;;;;;17.63;8.23;;;23.60;71.90;;;;;;6767517;26;20346;-64
2024/04/15 07:01:52;;;;;;;8.90;8.10;;;23.70;71.00;;;;;;6752341;26;20274;-64
2024/04/15 07:04:57;;;;;;;10.87;8.77;;;23.80;70.30;;;;;;6766425;26;20236;-63
2024/04/15 07:08:25;;;;;;;15.53;8.23;;;24.10;68.90;;;;;;6767398;26;20546;-63
2024/04/15 07:11:30;;;;;;;10.17;8.30;;;24.40;67.10;;;;;;6766906;26;20219;-63
2024/04/15 07:14:53;;;;;;;11.13;8.13;;;24.80;65.90;;;;;;6766212;26;20239;-65
2024/04/15 07:18:09;;;;;;;8.93;7.87;;;25.00;65.70;;;;;;6767503;26;20590;-64
2024/04/15 07:21:25;;;;;;;9.00;7.60;;;25.40;63.50;;;;;;6767011;26;20307;-64
2024/04/15 07:24:27;;;;;;;11.27;8.50;;;25.70;61.10;;;;;;6765884;26;20353;-62
2024/04/15 07:27:39;;;;;;;11.07;7.53;;;26.20;59.80;;;;;;6768113;26;20364;-62
2024/04/15 07:30:57;;;;;;;8.90;8.10;;;26.50;58.90;;;;;;6764287;26;20231;-61
2024/04/15 07:34:06;;;;;;;8.93;8.03;;;26.80;58.20;;;;;;6765965;26;20249;-61
2024/04/15 07:37:11;;;;;;;10.07;8.23;;;27.00;56.20;;;;;;6762104;26;20274;-62
2024/04/15 07:40:20;;;;;;;8.60;7.80;;;27.00;55.90;;;;;;6795261;26;20301;-60
2024/04/15 07:43:26;;;;;;;14.37;8.93;;;27.10;55.50;;;;;;6797981;26;20293;-63
2024/04/15 07:46:55;;;;;;;8.63;7.77;;;27.30;54.30;;;;;;6807339;26;21033;-63
2024/04/15 07:49:59;;;;;;;9.63;8.57;;;27.70;52.60;;;;;;6808758;26;20583;-64
2024/04/15 07:53:06;;;;;;;9.77;8.40;;;28.20;51.00;;;;;;6794436;26;20334;-62
2024/04/15 07:56:12;;;;;;;8.93;7.60;;;28.60;50.30;;;;;;6808076;26;20250;-62
2024/04/15 07:59:25;;;;;;;12.80;8.37;;;29.10;49.40;;;;;;6807997;26;20230;-62
2024/04/15 08:02:47;;;;;;;8.55;7.57;;;29.70;48.20;;;;;;6804916;26;20408;-62
2024/04/15 08:05:54;;;;;;;8.30;7.50;;;30.60;45.90;;;;;;6803332;26;20587;-64
2024/04/15 08:08:58;;;;;;;9.20;8.10;;;31.90;43.50;;;;;;6812857;26;20281;-62
2024/04/15 08:12:12;;;;;;;10.30;8.77;;;33.20;41.20;;;;;;6796954;26;20616;-65
2024/04/15 08:15:20;;;;;;;9.98;7.10;;;34.10;38.90;;;;;;6804403;26;20755;-63
2024/04/15 08:18:37;;;;;;;8.73;7.10;;;34.70;37.40;;;;;;6783958;26;20278;-64
2024/04/15 08:21:53;;;;;;;8.60;7.70;;;35.40;35.40;;;;;;6794514;26;20320;-62
2024/04/15 08:24:58;;;;;;;9.57;7.30;;;36.10;34.20;;;;;;6790973;26;20468;-63
2024/04/15 08:28:10;;;;;;;10.23;8.77;;;36.60;32.60;;;;;;6767289;26;20235;-63
2024/04/15 08:31:14;;;;;;;11.25;8.25;;;37.20;31.90;;;;;;6769130;26;20243;-62
2024/04/15 08:34:37;;;;;;;11.50;8.05;;;37.80;30.50;;;;;;6794283;26;20305;-65
2024/04/15 08:37:44;;;;;;;8.73;7.65;;;38.30;29.90;;;;;;6783510;26;20272;-63
2024/04/15 08:41:03;;;;;;;8.48;7.78;;;38.50;29.20;;;;;;6799035;26;20234;-64
2024/04/15 08:44:07;;;;;;;8.50;7.28;;;38.90;28.80;;;;;;6779243;26;20231;-63
2024/04/15 08:47:24;;;;;;;14.10;7.50;;;39.30;28.00;;;;;;6787434;26;20299;-63
2024/04/15 08:50:37;;;;;;;9.27;7.47;;;39.60;27.80;;;;;;6769123;26;20588;-64
2024/04/15 08:53:54;;;;;;;13.30;8.20;;;40.20;27.10;;;;;;6808965;26;20552;-64
2024/04/15 08:57:12;;;;;;;8.30;7.22;;;40.70;26.80;;;;;;6798172;26;20330;-63
2024/04/15 09:00:19;;;;;;;10.80;7.35;;;41.00;26.20;;;;;;6808581;26;20284;-64
2024/04/15 09:03:27;;;;;;;11.77;7.20;;;41.30;25.50;;;;;;6803449;26;20281;-63
2024/04/15 09:06:39;;;;;;;7.50;6.80;;;41.50;25.30;;;;;;6803379;26;20230;-64
2024/04/15 09:09:47;;;;;;;7.72;6.95;;;42.10;25.30;;;;;;6777587;26;20240;-63
2024/04/15 09:12:55;;;;;;;11.13;8.15;;;42.40;24.60;;;;;;6783893;26;20227;-63
2024/04/15 09:16:02;;;;;;;9.30;7.40;;;42.70;24.50;;;;;;6779452;26;20240;-63
2024/04/15 09:19:08;;;;;;;8.90;7.47;;;43.20;23.90;;;;;;6790727;26;20235;-63
2024/04/15 09:22:25;;;;;;;14.25;7.72;;;44.20;24.00;;;;;;6795277;26;20247;-63
2024/04/15 09:25:31;;;;;;;10.75;7.40;;;45.60;23.00;;;;;;6771660;26;20332;-64
2024/04/15 09:28:39;;;;;;;8.18;7.40;;;47.10;21.20;;;;;;6797009;26;20224;-65
2024/04/15 09:31:43;;;;;;;9.52;7.22;;;47.40;20.30;;;;;;6803185;26;20285;-61
2024/04/15 09:34:55;;;;;;;9.98;7.57;;;46.90;20.50;;;;;;6803927;26;20273;-61
2024/04/15 09:38:03;;;;;;;8.05;7.18;;;47.10;21.60;;;;;;6784624;26;20285;-62
2024/04/15 09:41:10;;;;;;;8.27;7.50;;;47.40;20.30;;;;;;6810955;26;20237;-62
2024/04/15 09:44:17;;;;;;;7.53;6.00;;;47.30;19.20;;;;;;6814673;26;20238;-62
2024/04/15 09:47:31;;;;;;;7.38;6.82;;;47.60;20.10;;;;;;6806127;25;20453;-62
2024/04/15 09:50:38;;;;;;;6.38;5.75;;;48.40;19.20;;;;;;6797260;26;20561;-61
2024/04/15 09:54:15;;;;;;;7.55;6.90;;;49.40;18.40;;;;;;6781690;26;20249;-63
2024/04/15 09:57:20;;;;;;;7.05;6.55;;;50.40;16.70;;;;;;6789141;26;20331;-63
2024/04/15 10:00:27;;;;;;;7.28;6.68;;;51.00;15.70;;;;;;6806661;26;20238;-63
2024/04/15 10:03:39;;;;;;;6.68;6.10;;;50.90;15.60;;;;;;6784264;26;20236;-61
2024/04/15 10:07:01;;;;;;;7.20;6.50;;;50.60;15.60;;;;;;6811240;26;20242;-63
2024/04/15 10:10:17;;;;;;;6.78;6.28;;;50.20;15.20;;;;;;6808678;26;20238;-63
2024/04/15 10:13:27;;;;;;;7.07;6.60;;;49.70;15.20;;;;;;6790646;26;20272;-60
2024/04/15 10:16:52;;;;;;;8.00;7.40;;;49.40;16.20;;;;;;6798952;26;20248;-64
2024/04/15 10:20:07;;;;;;;6.93;6.32;;;49.30;16.00;;;;;;6777909;26;20237;-64
2024/04/15 10:23:24;;;;;;;8.82;7.97;;;49.00;15.90;;;;;;6792667;26;20285;-63
2024/04/15 10:26:32;;;;;;;7.70;7.20;;;48.00;15.60;;;;;;6802571;26;20285;-64
2024/04/15 10:29:44;;;;;;;8.45;7.82;;;47.40;16.10;;;;;;6811196;26;20273;-63
2024/04/15 10:33:03;;;;;;;7.30;6.80;;;47.80;16.10;;;;;;6807736;26;20279;-64
2024/04/15 10:36:16;;;;;;;7.63;7.00;;;48.70;15.90;;;;;;6801017;26;20694;-64
2024/04/15 10:39:27;;;;;;;7.03;6.35;;;48.80;14.90;;;;;;6774247;26;20231;-64
2024/04/15 10:42:45;;;;;;;8.00;7.30;;;47.40;15.30;;;;;;6768775;26;20261;-63
2024/04/15 10:46:00;;;;;;;7.05;6.45;;;46.70;16.00;;;;;;6756563;26;20265;-64
2024/04/15 10:49:14;;;;;;;8.63;7.93;;;46.00;16.40;;;;;;6806735;26;20277;-63
2024/04/15 10:52:20;;;;;;;7.75;7.13;;;44.40;17.30;;;;;;6807905;26;20355;-61
2024/04/15 10:55:30;;;;;;;7.72;6.97;;;43.90;18.20;;;;;;6802276;26;20245;-64
2024/04/15 10:58:51;;;;;;;8.65;7.80;;;42.10;19.00;;;;;;6803578;26;20230;-63
2024/04/15 11:02:00;;;;;;;8.63;7.75;;;40.30;20.20;;;;;;6800123;26;20238;-63
2024/04/15 11:05:07;;;;;;;10.00;9.02;;;38.10;22.80;;;;;;6815181;26;20238;-62
2024/04/15 11:08:16;;;;;;;10.05;8.65;;;36.50;24.40;;;;;;6783588;26;20273;-63
2024/04/15 11:11:21;;;;;;;10.18;9.27;;;34.60;26.40;;;;;;6791960;26;20231;-63
2024/04/15 11:14:35;;;;;;;9.63;8.52;;;33.30;28.60;;;;;;6788071;26;20232;-63
2024/04/15 11:17:45;;;;;;;9.23;7.95;;;32.50;29.70;;;;;;6814456;26;20261;-63
2024/04/15 11:21:02;;;;;;;8.98;8.18;;;32.50;29.40;;;;;;6807955;26;20234;-63
2024/04/15 11:24:08;;;;;;;9.30;8.50;;;32.60;28.70;;;;;;6813020;26;20230;-64
2024/04/15 11:27:22;;;;;;;7.65;7.00;;;32.70;28.60;;;;;;6807351;26;20273;-63
2024/04/15 11:30:38;;;;;;;7.93;7.18;;;32.60;28.20;;;;;;6800541;26;20239;-63
2024/04/15 11:33:55;;;;;;;11.60;7.65;;;32.50;27.90;;;;;;6806884;26;20230;-63
2024/04/15 11:37:02;;;;;;;9.57;7.55;;;32.70;28.00;;;;;;6812928;26;20259;-63
2024/04/15 11:40:15;;;;;;;7.85;7.15;;;32.50;27.50;;;;;;6807704;26;20509;-63
2024/04/15 11:43:24;;;;;;;9.05;7.65;;;31.70;28.70;;;;;;6775109;26;20782;-63
2024/04/15 11:46:43;;;;;;;8.27;7.55;;;30.80;29.90;;;;;;6806981;26;20238;-63
2024/04/15 11:49:47;;;;;;;7.55;6.93;;;31.20;29.30;;;;;;6811984;26;20231;-64
2024/04/15 11:52:53;;;;;;;7.82;7.13;;;30.20;29.40;;;;;;6807982;26;20300;-63
2024/04/15 11:55:58;;;;;;;8.13;7.50;;;30.10;29.90;;;;;;6807278;26;20234;-62
2024/04/15 11:59:27;;;;;;;8.05;7.07;;;30.70;29.90;;;;;;6786225;26;20234;-64
2024/04/15 12:02:49;;;;;;;7.57;6.88;;;31.10;30.00;;;;;;6804670;26;20242;-64
2024/04/15 12:05:54;;;;;;;7.30;6.63;;;31.60;29.70;;;;;;6806385;26;20230;-62
2024/04/15 12:09:13;;;;;;;8.73;7.93;;;31.00;30.40;;;;;;6810453;26;20293;-62
2024/04/15 12:12:31;;;;;;;7.30;6.57;;;30.50;30.10;;;;;;6809252;26;20278;-63
2024/04/15 12:15:45;;;;;;;7.57;6.97;;;30.80;29.80;;;;;;6807424;26;20268;-63
2024/04/15 12:18:57;;;;;;;8.93;6.80;;;31.20;29.70;;;;;;6809023;26;20609;-63
2024/04/15 12:22:02;;;;;;;8.40;6.95;;;31.60;29.20;;;;;;6796322;26;20378;-64
2024/04/15 12:25:12;;;;;;;7.40;6.55;;;31.80;28.80;;;;;;6800745;26;20242;-64
2024/04/15 12:28:20;;;;;;;8.00;7.32;;;32.00;30.10;;;;;;6812233;26;20556;-63
2024/04/15 12:31:33;;;;;;;9.45;7.60;;;31.80;29.70;;;;;;6810489;26;20347;-64
2024/04/15 12:34:47;;;;;;;9.35;6.80;;;31.60;29.70;;;;;;6795199;26;20599;-63
2024/04/15 12:37:55;;;;;;;7.78;7.18;;;31.40;30.20;;;;;;6802043;26;20461;-64
2024/04/15 12:40:57;;;;;;;7.78;6.95;;;31.30;30.40;;;;;;6787680;26;20600;-63
2024/04/15 12:44:06;;;;;;;8.13;7.53;;;31.30;30.60;;;;;;6793741;26;20253;-63
2024/04/15 12:47:09;;;;;;;8.23;7.43;;;31.30;31.00;;;;;;6802860;26;20234;-65
2024/04/15 12:50:53;;;;;;;7.35;6.70;;;31.20;30.50;;;;;;6802608;26;20226;-63
2024/04/15 12:54:00;;;;;;;7.43;6.82;;;31.10;31.40;;;;;;6778199;26;20749;-64
2024/04/15 12:57:13;;;;;;;8.25;7.00;;;30.80;32.10;;;;;;6782970;26;20300;-64
2024/04/15 13:00:18;;;;;;;7.57;6.93;;;30.60;31.60;;;;;;6785803;26;20270;-66
2024/04/15 13:03:26;;;;;;;7.53;6.85;;;30.20;31.80;;;;;;6788974;26;20228;-63
2024/04/15 13:06:35;;;;;;;11.82;6.65;;;29.90;32.00;;;;;;6806641;26;20339;-64
2024/04/15 13:09:42;;;;;;;9.85;7.05;;;29.50;32.90;;;;;;6782206;26;20964;-64
2024/04/15 13:12:45;;;;;;;7.90;6.80;;;29.20;33.70;;;;;;6763058;26;20274;-62
2024/04/15 13:15:57;;;;;;;7.67;6.97;;;28.80;34.50;;;;;;6794798;26;20981;-63
2024/04/15 13:19:01;;;;;;;10.70;7.43;;;28.40;34.10;;;;;;6786792;26;20715;-64
2024/04/15 13:22:14;;;;;;;8.13;7.37;;;28.10;35.50;;;;;;6792635;26;20242;-63
2024/04/15 13:25:19;;;;;;;7.40;6.70;;;27.90;36.70;;;;;;6799576;26;20304;-63
2024/04/15 13:28:33;;;;;;;9.97;7.00;;;27.80;37.00;;;;;;6810612;26;20238;-62
2024/04/15 13:31:37;;;;;;;10.40;8.13;;;27.60;37.40;;;;;;6803567;26;20576;-64
2024/04/15 13:34:45;;;;;;;7.57;6.97;;;27.60;37.50;;;;;;6817793;26;20269;-62
2024/04/15 13:38:07;;;;;;;7.07;6.47;;;27.60;37.30;;;;;;6806904;26;20337;-62
2024/04/15 13:41:10;;;;;;;7.60;6.83;;;27.40;37.60;;;;;;6787234;26;20524;-63
2024/04/15 13:44:25;;;;;;;6.83;6.00;;;27.50;35.90;;;;;;6809863;26;20968;-64
2024/04/15 13:47:28;;;;;;;7.57;6.50;;;27.40;35.80;;;;;;6793884;26;20234;-63
2024/04/15 13:50:36;;;;;;;7.60;6.90;;;27.50;37.00;;;;;;6803745;26;20501;-61
2024/04/15 13:53:53;;;;;;;7.00;6.30;;;27.50;37.00;;;;;;6812490;26;20265;-62
2024/04/15 13:56:59;;;;;;;7.90;6.37;;;27.40;37.00;;;;;;6798605;26;20285;-63
2024/04/15 14:00:13;;;;;;;6.80;6.10;;;27.40;36.90;;;;;;6784310;26;20286;-62
2024/04/15 14:03:32;;;;;;;7.67;6.97;;;27.30;36.90;;;;;;6782236;26;20275;-62
2024/04/15 14:06:36;;;;;;;10.00;6.83;;;27.20;36.80;;;;;;6791842;26;20278;-62
2024/04/15 14:10:03;;;;;;;6.03;5.50;;;27.10;36.80;;;;;;6795006;26;20331;-63
2024/04/15 14:13:07;;;;;;;7.10;6.40;;;26.90;37.40;;;;;;6787862;26;20266;-62
2024/04/15 14:16:14;;;;;;;6.87;6.10;;;26.90;37.60;;;;;;6791503;26;20290;-62
2024/04/15 14:19:29;;;;;;;7.30;5.70;;;26.90;37.60;;;;;;6776337;26;20321;-63
2024/04/15 14:22:35;;;;;;;15.57;6.20;;;26.60;38.00;;;;;;6784917;26;20235;-63
2024/04/15 14:25:50;;;;;;;6.73;6.20;;;26.50;38.00;;;;;;6790610;26;20277;-62
2024/04/15 14:28:55;;;;;;;9.30;6.40;;;26.40;38.90;;;;;;6784891;26;20606;-63
2024/04/15 14:32:11;;;;;;;10.93;6.80;;;26.40;39.10;;;;;;6793725;26;20581;-61
2024/04/15 14:35:14;;;;;;;8.07;6.23;;;26.00;43.90;;;;;;6779249;26;20264;-62
2024/04/15 14:38:23;;;;;;;7.47;6.33;;;25.60;45.50;;;;;;6797844;26;20235;-64
2024/04/15 14:41:47;;;;;;;9.70;5.80;;;24.80;47.50;;;;;;6769423;26;20283;-67
2024/04/15 14:44:58;;;;;;;7.70;6.90;;;23.80;50.10;;;;;;6754879;26;20270;-65
2024/04/15 14:48:12;;;;;;;6.63;5.67;;;23.50;51.40;;;;;;6733004;26;20236;-63
2024/04/15 14:51:21;;;;;;;9.27;5.93;;;23.30;52.20;;;;;;6762637;26;20290;-62
2024/04/15 14:54:23;;;;;;;6.60;5.40;;;23.30;52.60;;;;;;6750697;26;20295;-63
2024/04/15 14:57:47;;;;;;;6.70;6.10;;;23.40;52.60;;;;;;6790624;26;20317;-63
2024/04/15 15:00:53;;;;;;;9.57;6.10;;;23.30;53.10;;;;;;6748637;26;20244;-63
2024/04/15 15:04:10;;;;;;;7.03;5.07;;;23.10;53.70;;;;;;6728920;26;20237;-64
2024/04/15 15:07:12;;;;;;;6.80;5.50;;;23.00;54.30;;;;;;6735182;26;20282;-63
2024/04/15 15:10:20;;;;;;;4.93;4.43;;;23.10;54.70;;;;;;6747799;26;20275;-63
2024/04/15 15:13:44;;;;;;;8.70;5.80;;;23.00;54.40;;;;;;6769647;26;20236;-64
2024/04/15 15:16:55;;;;;;;6.23;5.27;;;22.90;54.60;;;;;;6721368;26;20290;-64
2024/04/15 15:20:01;;;;;;;5.50;4.60;;;22.70;54.70;;;;;;6748306;26;20236;-63
2024/04/15 15:23:12;;;;;;;7.37;5.20;;;22.70;55.40;;;;;;6747491;26;20662;-63
2024/04/15 15:26:24;;;;;;;6.87;4.30;;;22.80;54.90;;;;;;6736107;26;20334;-63
2024/04/15 15:29:51;;;;;;;6.03;5.53;;;22.70;54.50;;;;;;6756295;26;20278;-63
2024/04/15 15:33:00;;;;;;;4.83;4.40;;;22.80;55.00;;;;;;6737523;26;20233;-63
2024/04/15 15:36:05;;;;;;;8.47;5.07;;;22.80;54.90;;;;;;6747440;26;20329;-63
2024/04/15 15:42:30;;;;;;;4.83;4.43;;;22.90;55.20;;;;;;6776947;26;20771;-64
2024/04/15 15:45:50;;;;;;;6.40;4.63;;;23.00;54.80;;;;;;6800604;26;20251;-64
2024/04/15 15:48:59;;;;;;;6.90;4.70;;;23.10;55.00;;;;;;6799051;26;20407;-63
2024/04/15 15:52:07;;;;;;;7.60;4.40;;;23.20;54.70;;;;;;6802905;26;20548;-63
2024/04/15 15:55:14;;;;;;;6.47;5.00;;;23.10;54.90;;;;;;6810509;26;20314;-64
2024/04/15 15:58:23;;;;;;;7.40;4.50;;;22.90;55.20;;;;;;6808892;26;20273;-63
2024/04/15 16:01:46;;;;;;;5.00;4.47;;;22.70;55.50;;;;;;6812389;26;20341;-63
2024/04/15 16:04:50;;;;;;;6.80;5.40;;;22.30;56.50;;;;;;6799983;26;20239;-64
2024/04/15 16:08:00;;;;;;;5.50;4.47;;;21.90;57.20;;;;;;6792430;26;20243;-63
2024/04/15 16:11:05;;;;;;;5.30;4.90;;;21.90;57.60;;;;;;6768952;26;20333;-63
2024/04/15 16:14:21;;;;;;;7.70;4.90;;;21.90;57.60;;;;;;6794925;26;20515;-63
2024/04/15 16:17:31;;;;;;;6.70;4.90;;;22.00;57.80;;;;;;6805368;26;20240;-63
2024/04/15 16:20:43;;;;;;;7.20;4.83;;;22.20;57.90;;;;;;6789524;26;20303;-63
2024/04/15 16:23:51;;;;;;;7.17;6.37;;;22.10;57.70;;;;;;6792532;26;20323;-63
2024/04/15 16:27:07;;;;;;;4.63;4.23;;;21.70;58.10;;;;;;6788088;26;20240;-63
2024/04/15 16:30:16;;;;;;;5.80;4.60;;;21.20;59.40;;;;;;6790319;26;20244;-63
2024/04/15 16:33:29;;;;;;;6.27;5.07;;;20.90;60.20;;;;;;6786725;26;20789;-62
2024/04/15 16:36:35;;;;;;;8.10;4.87;;;20.70;61.30;;;;;;6799001;26;20250;-61
2024/04/15 16:43:04;;;;;;;4.70;4.17;;;20.50;62.30;;;;;;6787123;26;20662;-62